Time;durP1;ratioP1;P1;durP2;ratioP2;P2;SDS_P1;SDS_P2;PMS_P1;PMS_P2;Temp;Humidity;BMP_temperature;BMP_pressure;BME280_temperature;BME280_humidity;BME280_pressure;Samples;Min_cycle;Max_cycle;Signal;HPM_P1;HPM_P2
2021/07/03 00:02:02;;;;;;;16.92;3.00;;;20.10;99.90;;;;;;5105783;28;20036;-44
2021/07/03 00:05:06;;;;;;;11.23;3.17;;;20.10;99.90;;;;;;5106461;28;20047;-44
2021/07/03 00:08:10;;;;;;;9.52;3.30;;;20.10;99.90;;;;;;5086547;28;20517;-45
2021/07/03 00:11:14;;;;;;;12.52;3.38;;;20.20;99.90;;;;;;5103130;28;20036;-45
2021/07/03 00:14:19;;;;;;;12.68;4.25;;;20.10;99.90;;;;;;5105815;28;20046;-44
2021/07/03 00:17:23;;;;;;;13.18;2.83;;;20.10;99.90;;;;;;5106804;28;20035;-44
2021/07/03 00:20:27;;;;;;;10.50;3.08;;;20.10;99.90;;;;;;5105097;28;20043;-44
2021/07/03 00:23:32;;;;;;;6.45;2.70;;;20.00;99.90;;;;;;5105592;28;20042;-45
2021/07/03 00:26:35;;;;;;;10.27;3.65;;;20.00;99.90;;;;;;5106281;28;20043;-47
2021/07/03 00:29:40;;;;;;;7.38;2.90;;;20.00;99.90;;;;;;5101297;28;20069;-45
2021/07/03 00:32:44;;;;;;;16.40;3.67;;;19.90;99.90;;;;;;5105329;28;20043;-44
2021/07/03 00:35:47;;;;;;;10.68;3.42;;;19.90;99.90;;;;;;5106354;28;20050;-44
2021/07/03 00:38:51;;;;;;;8.85;2.92;;;19.90;99.90;;;;;;5105382;28;20513;-45
2021/07/03 00:41:56;;;;;;;10.07;3.05;;;19.80;99.90;;;;;;5104783;28;20040;-44
2021/07/03 00:45:01;;;;;;;14.93;4.13;;;19.80;99.90;;;;;;5093029;28;20047;-46
2021/07/03 00:48:05;;;;;;;13.20;4.25;;;19.70;99.90;;;;;;5092509;28;20414;-44
2021/07/03 00:51:10;;;;;;;7.78;2.80;;;19.70;99.90;;;;;;5092069;28;20043;-44
2021/07/03 00:54:14;;;;;;;12.85;3.78;;;19.70;99.90;;;;;;5105186;28;20039;-43
2021/07/03 00:57:18;;;;;;;16.25;3.97;;;19.70;99.90;;;;;;5091896;28;20035;-46
2021/07/03 01:00:24;;;;;;;12.23;3.00;;;19.70;99.90;;;;;;5082130;28;20039;-45
2021/07/03 01:03:30;;;;;;;11.20;3.90;;;19.60;99.90;;;;;;5079163;28;20047;-44
2021/07/03 01:06:36;;;;;;;9.90;4.18;;;19.50;99.90;;;;;;5079695;28;20054;-45
2021/07/03 01:09:41;;;;;;;10.80;2.95;;;19.40;99.90;;;;;;5090764;28;20044;-44
2021/07/03 01:12:47;;;;;;;14.45;3.70;;;19.40;99.90;;;;;;5090809;28;20600;-44
2021/07/03 01:15:52;;;;;;;9.02;3.13;;;19.40;99.90;;;;;;5091889;28;20035;-43
2021/07/03 01:18:56;;;;;;;13.63;2.97;;;19.40;99.90;;;;;;5078815;28;20467;-44
2021/07/03 01:22:01;;;;;;;15.35;3.03;;;19.40;99.90;;;;;;5077955;28;20043;-43
2021/07/03 01:25:06;;;;;;;5.50;2.55;;;19.30;99.90;;;;;;5079159;28;20051;-45
2021/07/03 01:28:10;;;;;;;12.43;3.28;;;19.30;99.90;;;;;;5078768;28;20040;-44
2021/07/03 01:31:20;;;;;;;7.82;2.80;;;19.40;99.90;;;;;;5077750;28;20055;-46
2021/07/03 01:34:27;;;;;;;11.30;2.83;;;19.40;99.90;;;;;;5078496;28;20036;-45
2021/07/03 01:37:32;;;;;;;8.35;2.53;;;19.50;99.90;;;;;;5079437;28;20209;-44
2021/07/03 01:40:36;;;;;;;8.50;2.67;;;19.50;99.90;;;;;;5077871;28;20044;-44
2021/07/03 01:43:46;;;;;;;12.27;2.80;;;19.50;99.90;;;;;;5091245;28;20032;-45
2021/07/03 01:46:57;;;;;;;9.05;2.88;;;19.60;99.90;;;;;;5079273;28;20035;-45
2021/07/03 01:50:02;;;;;;;9.70;3.08;;;19.50;99.90;;;;;;5090065;28;20028;-44
2021/07/03 01:53:07;;;;;;;8.93;3.38;;;19.30;99.90;;;;;;5078032;28;20039;-43
2021/07/03 01:56:13;;;;;;;9.57;3.08;;;19.20;99.90;;;;;;5078925;28;20388;-47
2021/07/03 01:59:17;;;;;;;9.50;3.25;;;19.00;99.90;;;;;;5087804;28;20035;-45
2021/07/03 02:02:37;;;;;;;11.90;3.08;;;18.90;99.90;;;;;;5077695;28;20479;-45
2021/07/03 02:05:42;;;;;;;9.48;3.10;;;18.80;99.90;;;;;;5078349;28;20519;-44
2021/07/03 02:08:50;;;;;;;7.07;2.72;;;18.70;99.90;;;;;;5078355;28;20044;-44
2021/07/03 02:11:56;;;;;;;12.32;3.53;;;18.70;99.90;;;;;;5075819;28;20032;-43
2021/07/03 02:15:09;;;;;;;7.25;2.50;;;18.70;99.90;;;;;;5077824;28;20035;-43
2021/07/03 02:18:15;;;;;;;5.28;2.88;;;18.60;99.90;;;;;;5090918;28;20032;-43
2021/07/03 02:21:20;;;;;;;10.50;3.38;;;18.60;99.90;;;;;;5076547;28;20036;-44
2021/07/03 02:24:24;;;;;;;7.60;3.08;;;18.40;99.90;;;;;;5077005;28;20086;-44
2021/07/03 02:27:29;;;;;;;9.05;3.63;;;18.30;99.90;;;;;;5089961;22;20049;-70
2021/07/03 02:30:41;;;;;;;10.13;3.45;;;18.20;99.90;;;;;;5044755;28;20049;-69
2021/07/03 02:33:46;;;;;;;9.23;3.10;;;18.20;99.90;;;;;;5050043;28;20059;-69
2021/07/03 02:36:54;;;;;;;12.30;3.55;;;18.10;99.90;;;;;;5049263;28;20029;-70
2021/07/03 02:40:03;;;;;;;11.93;3.90;;;17.90;99.90;;;;;;5049269;28;20044;-69
2021/07/03 02:43:13;;;;;;;9.88;3.38;;;17.90;99.90;;;;;;5049327;28;20052;-70
2021/07/03 02:46:20;;;;;;;11.30;4.25;;;17.90;99.90;;;;;;5049984;28;20040;-70
2021/07/03 02:49:25;;;;;;;11.98;4.03;;;17.80;99.90;;;;;;5031224;28;20051;-69
2021/07/03 02:52:30;;;;;;;7.60;3.80;;;17.80;99.90;;;;;;5058086;28;20229;-70
2021/07/03 02:55:35;;;;;;;14.85;3.97;;;17.80;99.90;;;;;;5049648;28;20043;-70
2021/07/03 02:58:40;;;;;;;9.48;3.45;;;17.70;99.90;;;;;;5036377;28;20044;-70
2021/07/03 03:01:45;;;;;;;8.93;3.40;;;17.70;99.90;;;;;;5048623;28;20029;-70
2021/07/03 03:04:50;;;;;;;9.52;3.65;;;17.70;99.90;;;;;;5048803;28;20518;-70
2021/07/03 03:07:56;;;;;;;9.60;3.70;;;17.70;99.90;;;;;;5050687;28;20048;-69
2021/07/03 03:11:02;;;;;;;13.85;3.85;;;17.80;99.90;;;;;;5048699;28;20040;-69
2021/07/03 03:14:07;;;;;;;8.65;3.67;;;17.80;99.90;;;;;;5048714;28;20040;-70
2021/07/03 03:17:11;;;;;;;9.77;3.50;;;17.80;99.90;;;;;;5050515;28;20858;-70
2021/07/03 03:20:16;;;;;;;10.00;3.42;;;17.80;99.90;;;;;;5048527;28;20037;-69
2021/07/03 03:23:21;;;;;;;10.90;3.55;;;17.80;99.90;;;;;;5047964;28;20051;-70
2021/07/03 03:26:26;;;;;;;8.52;3.30;;;17.80;99.90;;;;;;5049839;28;20391;-69
2021/07/03 03:29:30;;;;;;;8.63;3.40;;;17.80;99.90;;;;;;5030043;28;20145;-70
2021/07/03 03:32:36;;;;;;;10.02;3.50;;;17.70;99.90;;;;;;5044720;28;20325;-70
2021/07/03 03:35:40;;;;;;;10.05;3.10;;;17.70;99.90;;;;;;5049605;28;20036;-70
2021/07/03 03:38:45;;;;;;;14.68;3.45;;;17.70;99.90;;;;;;5049050;28;20044;-70
2021/07/03 03:41:50;;;;;;;10.63;3.30;;;17.60;99.90;;;;;;5047992;28;20052;-69
2021/07/03 03:44:55;;;;;;;12.40;4.13;;;17.70;99.90;;;;;;5048161;28;20052;-70
2021/07/03 03:47:59;;;;;;;7.07;2.83;;;17.60;99.90;;;;;;5050370;28;20048;-70
2021/07/03 03:51:09;;;;;;;8.95;3.65;;;17.60;99.90;;;;;;5047984;28;20033;-70
2021/07/03 03:54:16;;;;;;;13.65;4.15;;;17.40;99.90;;;;;;5048425;28;20056;-70
2021/07/03 03:57:21;;;;;;;14.55;4.28;;;17.30;99.90;;;;;;5048314;28;20040;-69
2021/07/03 04:00:25;;;;;;;12.35;3.65;;;17.30;99.90;;;;;;5046892;28;20044;-69
2021/07/03 04:03:37;;;;;;;17.13;3.92;;;17.20;99.90;;;;;;5048426;28;20044;-70
2021/07/03 04:06:42;;;;;;;10.30;4.22;;;17.10;99.90;;;;;;5049493;28;20044;-70
2021/07/03 04:09:46;;;;;;;11.20;5.32;;;16.90;99.90;;;;;;5048732;28;20048;-70
2021/07/03 04:12:51;;;;;;;12.50;4.82;;;16.80;99.90;;;;;;5049003;28;20048;-70
2021/07/03 04:15:55;;;;;;;16.58;4.72;;;16.80;99.90;;;;;;5049420;28;20044;-70
2021/07/03 04:18:59;;;;;;;16.48;5.03;;;17.00;99.90;;;;;;5028906;28;20044;-69
2021/07/03 04:22:03;;;;;;;11.90;4.03;;;17.20;99.90;;;;;;5045320;28;20048;-69
2021/07/03 04:25:11;;;;;;;16.63;4.43;;;17.40;99.90;;;;;;5048262;28;20702;-70
2021/07/03 04:28:16;;;;;;;14.50;4.50;;;17.70;99.90;;;;;;5049479;28;20517;-69
2021/07/03 04:31:19;;;;;;;23.02;5.85;;;17.80;99.90;;;;;;5047564;28;20116;-70
2021/07/03 04:34:24;;;;;;;12.02;4.38;;;18.50;99.90;;;;;;5049040;28;20044;-70
2021/07/03 04:37:28;;;;;;;10.13;4.10;;;20.20;99.90;;;;;;5052340;28;20040;-70
2021/07/03 04:40:32;;;;;;;13.75;4.93;;;21.30;99.90;;;;;;5048278;28;20044;-70
2021/07/03 04:43:36;;;;;;;16.63;4.25;;;20.30;99.90;;;;;;5052452;28;20060;-70
2021/07/03 04:46:40;;;;;;;8.20;3.83;;;20.00;99.90;;;;;;5033365;28;20036;-70
2021/07/03 04:49:45;;;;;;;9.85;3.85;;;19.60;99.90;;;;;;5050755;28;20048;-70
2021/07/03 04:52:49;;;;;;;11.65;3.97;;;19.10;99.90;;;;;;5052110;28;20112;-70
2021/07/03 04:55:53;;;;;;;10.88;3.85;;;18.70;99.90;;;;;;5053313;28;20044;-70
2021/07/03 04:58:57;;;;;;;9.65;4.07;;;18.30;99.90;;;;;;5051360;28;20391;-70
2021/07/03 05:02:05;;;;;;;10.20;4.10;;;18.00;99.90;;;;;;5056467;28;20037;-70
2021/07/03 05:05:09;;;;;;;16.58;4.75;;;17.90;99.90;;;;;;5051332;28;20414;-70
2021/07/03 05:08:14;;;;;;;13.32;4.15;;;18.00;99.90;;;;;;5052750;28;20415;-70
2021/07/03 05:11:18;;;;;;;9.40;4.07;;;18.10;99.90;;;;;;5051569;28;20096;-70
2021/07/03 05:14:21;;;;;;;18.65;3.55;;;18.30;99.90;;;;;;5052467;28;20496;-70
2021/07/03 05:17:26;;;;;;;9.63;3.40;;;18.50;99.90;;;;;;5052955;28;20043;-70
2021/07/03 05:20:30;;;;;;;11.65;4.57;;;18.60;99.90;;;;;;5051706;28;20063;-70
2021/07/03 05:23:34;;;;;;;14.75;4.30;;;18.70;99.90;;;;;;5051800;28;20051;-70
2021/07/03 05:26:39;;;;;;;7.25;3.20;;;19.90;99.90;;;;;;5047831;28;20395;-69
2021/07/03 05:29:43;;;;;;;12.90;3.33;;;21.30;99.90;;;;;;5049362;28;20505;-69
2021/07/03 05:32:47;;;;;;;7.50;3.20;;;22.70;99.90;;;;;;5049694;28;20036;-71
2021/07/03 05:35:52;;;;;;;9.80;2.83;;;21.50;99.90;;;;;;5051114;28;20033;-69
2021/07/03 05:38:56;;;;;;;10.63;3.80;;;21.40;99.90;;;;;;5051365;28;20044;-70
2021/07/03 05:42:01;;;;;;;17.00;3.53;;;21.50;99.90;;;;;;5048202;28;20039;-69
2021/07/03 05:45:06;;;;;;;11.48;4.00;;;20.30;99.90;;;;;;5050060;28;20047;-70
2021/07/03 05:48:10;;;;;;;12.75;3.78;;;20.20;99.90;;;;;;5051018;28;20060;-70
2021/07/03 05:51:14;;;;;;;17.35;4.30;;;20.30;99.90;;;;;;5049621;28;20044;-69
2021/07/03 05:54:18;;;;;;;12.48;4.22;;;20.20;99.90;;;;;;5048367;28;20039;-69
2021/07/03 05:57:25;;;;;;;8.88;3.53;;;20.50;99.90;;;;;;5048498;28;20048;-68
2021/07/03 06:00:30;;;;;;;7.60;3.30;;;21.80;99.90;;;;;;5049019;28;20040;-68
2021/07/03 06:03:34;;;;;;;12.63;3.55;;;23.90;99.90;;;;;;5050440;28;20051;-70
2021/07/03 06:06:38;;;;;;;8.95;3.15;;;25.70;98.40;;;;;;5049757;28;20077;-69
2021/07/03 06:09:42;;;;;;;9.85;3.00;;;26.80;95.80;;;;;;5047822;28;20310;-69
2021/07/03 06:12:47;;;;;;;10.75;3.25;;;27.30;94.60;;;;;;5042258;28;20383;-70
2021/07/03 06:15:51;;;;;;;8.77;2.78;;;27.40;93.70;;;;;;5051785;28;20040;-70
2021/07/03 06:18:55;;;;;;;6.20;2.55;;;26.80;93.40;;;;;;5050684;28;20052;-70
2021/07/03 06:22:00;;;;;;;8.82;2.65;;;27.40;92.80;;;;;;5049981;28;20076;-70
2021/07/03 06:25:05;;;;;;;5.97;2.15;;;27.90;91.70;;;;;;5051245;28;20052;-70
2021/07/03 06:28:10;;;;;;;8.10;2.28;;;28.50;91.10;;;;;;5049851;28;20051;-69
2021/07/03 06:31:14;;;;;;;14.98;3.33;;;29.00;90.20;;;;;;5049432;28;20048;-70
2021/07/03 06:34:21;;;;;;;6.43;2.45;;;26.30;91.90;;;;;;5034464;28;20044;-69
2021/07/03 06:37:26;;;;;;;8.23;2.88;;;26.80;92.30;;;;;;5049612;28;20036;-70
2021/07/03 06:40:31;;;;;;;7.90;2.65;;;26.50;92.20;;;;;;5046651;28;20040;-69
2021/07/03 06:43:37;;;;;;;11.10;2.58;;;27.60;90.90;;;;;;5047078;28;20040;-69
2021/07/03 06:46:43;;;;;;;13.07;2.45;;;26.90;91.40;;;;;;5049084;28;20044;-69
2021/07/03 06:49:49;;;;;;;6.15;2.60;;;27.00;91.30;;;;;;5049478;28;20064;-70
2021/07/03 06:52:54;;;;;;;8.10;2.42;;;27.40;91.00;;;;;;5046329;28;20037;-69
2021/07/03 06:55:58;;;;;;;5.20;2.20;;;28.00;89.90;;;;;;5050304;28;20567;-71
2021/07/03 06:59:03;;;;;;;6.78;2.28;;;27.70;90.10;;;;;;5047742;28;20044;-71
2021/07/03 07:02:09;;;;;;;11.68;2.40;;;28.20;90.10;;;;;;5048017;28;20502;-70
2021/07/03 07:05:15;;;;;;;6.55;2.45;;;29.30;88.70;;;;;;5048339;28;20036;-69
2021/07/03 07:08:19;;;;;;;4.93;2.20;;;29.30;86.90;;;;;;5047724;28;20029;-70
2021/07/03 07:11:23;;;;;;;8.23;1.90;;;30.20;85.70;;;;;;5047287;28;20045;-70
2021/07/03 07:14:27;;;;;;;4.20;1.80;;;31.60;83.30;;;;;;5047769;28;20040;-70
2021/07/03 07:17:33;;;;;;;9.57;2.20;;;32.70;80.80;;;;;;5044583;28;20040;-70
2021/07/03 07:20:37;;;;;;;7.60;2.00;;;32.10;79.90;;;;;;5042692;28;20052;-70
2021/07/03 07:23:42;;;;;;;5.70;1.73;;;32.30;79.50;;;;;;5045982;28;20033;-70
2021/07/03 07:26:46;;;;;;;5.72;2.08;;;31.70;79.90;;;;;;5043425;28;20414;-69
2021/07/03 07:29:50;;;;;;;8.52;2.00;;;31.40;80.90;;;;;;5037863;28;20045;-71
2021/07/03 07:32:54;;;;;;;5.18;2.03;;;29.90;82.70;;;;;;5040772;28;20040;-70
2021/07/03 07:35:58;;;;;;;7.93;2.10;;;31.60;80.40;;;;;;5050105;28;20033;-70
2021/07/03 07:39:04;;;;;;;9.13;2.10;;;30.80;79.80;;;;;;5046600;28;20041;-70
2021/07/03 07:42:10;;;;;;;6.40;2.42;;;30.50;81.20;;;;;;5047678;28;20389;-68
2021/07/03 07:45:15;;;;;;;5.07;1.92;;;32.00;79.50;;;;;;5048097;28;20075;-69
2021/07/03 07:48:20;;;;;;;6.50;1.90;;;32.60;77.80;;;;;;5038771;28;20021;-70
2021/07/03 07:51:25;;;;;;;12.10;2.20;;;32.30;77.20;;;;;;5046576;28;20055;-70
2021/07/03 07:54:30;;;;;;;6.07;2.00;;;31.00;80.10;;;;;;5049786;28;20047;-70
2021/07/03 07:57:34;;;;;;;5.10;1.85;;;32.40;78.90;;;;;;5043150;28;20052;-70
2021/07/03 08:00:38;;;;;;;6.13;2.30;;;30.80;79.50;;;;;;5048615;28;20029;-70
2021/07/03 08:03:42;;;;;;;7.60;2.33;;;30.10;80.60;;;;;;5049464;28;20036;-69
2021/07/03 08:06:46;;;;;;;9.00;2.10;;;31.80;80.20;;;;;;5048580;28;20051;-70
2021/07/03 08:09:51;;;;;;;7.65;2.03;;;30.90;79.30;;;;;;5046365;28;20048;-69
2021/07/03 08:12:55;;;;;;;10.20;2.53;;;32.30;79.20;;;;;;5052177;28;20033;-69
2021/07/03 08:15:59;;;;;;;10.77;2.55;;;32.10;79.20;;;;;;5052527;28;20036;-71
2021/07/03 08:19:04;;;;;;;7.00;1.98;;;32.50;78.40;;;;;;5052836;28;20040;-70
2021/07/03 08:22:08;;;;;;;9.25;2.20;;;33.50;75.90;;;;;;5040030;28;20033;-70
2021/07/03 08:25:15;;;;;;;5.90;2.08;;;33.80;76.50;;;;;;5053057;28;20049;-70
2021/07/03 08:28:19;;;;;;;9.05;2.33;;;35.50;74.70;;;;;;5052440;28;20060;-69
2021/07/03 08:31:23;;;;;;;7.10;1.90;;;33.20;75.50;;;;;;5036321;28;20041;-70
2021/07/03 08:34:27;;;;;;;8.15;2.28;;;34.80;73.80;;;;;;5053037;28;20033;-71
2021/07/03 08:37:32;;;;;;;18.98;2.40;;;36.20;70.80;;;;;;5052203;28;20044;-70
2021/07/03 08:40:36;;;;;;;5.30;2.20;;;36.50;69.00;;;;;;5046856;28;20498;-70
2021/07/03 08:43:48;;;;;;;6.82;1.75;;;37.60;68.10;;;;;;5050966;28;20040;-71
2021/07/03 08:46:53;;;;;;;6.47;2.00;;;38.80;66.90;;;;;;5051611;28;20029;-70
2021/07/03 08:50:00;;;;;;;7.05;2.03;;;39.30;65.00;;;;;;5040312;28;20052;-70
2021/07/03 08:53:08;;;;;;;5.22;2.28;;;39.40;62.40;;;;;;5052478;28;20036;-68
2021/07/03 08:56:12;;;;;;;3.70;1.50;;;40.40;61.80;;;;;;5051290;28;20393;-69
2021/07/03 08:59:20;;;;;;;4.03;1.55;;;41.00;61.00;;;;;;5040160;28;20034;-70
2021/07/03 09:02:44;;;;;;;4.22;1.40;;;41.50;61.30;;;;;;5040166;28;20033;-70
2021/07/03 09:05:54;;;;;;;5.53;1.58;;;42.10;59.30;;;;;;5048082;28;20033;-70
2021/07/03 09:09:00;;;;;;;3.83;1.55;;;41.50;58.20;;;;;;5051844;28;20048;-70
2021/07/03 09:12:04;;;;;;;9.32;2.00;;;41.80;58.80;;;;;;5051892;28;20232;-69
2021/07/03 09:15:14;;;;;;;2.90;1.60;;;42.60;59.20;;;;;;5052428;28;20476;-69
2021/07/03 09:18:19;;;;;;;7.93;1.50;;;42.90;58.60;;;;;;5051228;28;20060;-71
2021/07/03 09:21:23;;;;;;;3.35;1.75;;;43.40;58.30;;;;;;5050978;28;20391;-69
2021/07/03 09:24:31;;;;;;;3.83;1.50;;;44.10;57.50;;;;;;5052257;28;20376;-70
2021/07/03 09:27:39;;;;;;;4.85;1.92;;;44.90;57.00;;;;;;5050603;28;20419;-70
2021/07/03 09:30:49;;;;;;;3.78;1.52;;;45.60;56.60;;;;;;5048912;28;20041;-70
2021/07/03 09:33:54;;;;;;;7.57;1.83;;;45.90;55.70;;;;;;5033459;28;20037;-70
2021/07/03 09:37:05;;;;;;;2.92;1.40;;;46.30;55.00;;;;;;5052357;28;20056;-71
2021/07/03 09:40:11;;;;;;;11.23;2.20;;;46.10;55.20;;;;;;5050800;28;20037;-68
2021/07/03 09:43:15;;;;;;;6.05;1.77;;;46.10;54.60;;;;;;5051672;28;20507;-69
2021/07/03 09:46:33;;;;;;;3.63;1.70;;;45.30;54.60;;;;;;5051610;28;20029;-70
2021/07/03 09:49:40;;;;;;;4.03;1.90;;;45.20;56.00;;;;;;5046704;28;20033;-71
2021/07/03 09:52:44;;;;;;;4.72;1.48;;;46.00;55.10;;;;;;5049510;28;20367;-70
2021/07/03 09:55:49;;;;;;;4.80;1.77;;;42.30;54.80;;;;;;5051604;28;20510;-70
2021/07/03 09:58:53;;;;;;;3.95;1.90;;;43.70;56.90;;;;;;5051242;28;20029;-69
2021/07/03 10:01:58;;;;;;;5.65;1.85;;;40.30;56.90;;;;;;5050470;28;20040;-70
2021/07/03 10:05:03;;;;;;;6.32;1.95;;;41.50;56.80;;;;;;5051016;28;20040;-69
2021/07/03 10:08:11;;;;;;;6.63;2.10;;;43.90;56.80;;;;;;5032243;28;20052;-70
2021/07/03 10:11:20;;;;;;;6.95;1.60;;;45.20;55.00;;;;;;5044738;28;20399;-69
2021/07/03 10:14:25;;;;;;;12.50;1.88;;;45.80;54.10;;;;;;5050952;28;20044;-70
2021/07/03 10:17:32;;;;;;;4.80;1.85;;;46.10;53.00;;;;;;5036393;28;20048;-68
2021/07/03 10:20:36;;;;;;;3.10;1.60;;;46.70;52.70;;;;;;5049471;28;20036;-67
2021/07/03 10:23:43;;;;;;;4.82;1.90;;;40.80;54.40;;;;;;5050462;28;20049;-67
2021/07/03 10:26:52;;;;;;;3.85;2.05;;;37.30;59.00;;;;;;5049455;28;20040;-69
2021/07/03 10:30:03;;;;;;;4.03;2.03;;;37.80;57.50;;;;;;5047014;28;20391;-68
2021/07/03 10:33:22;;;;;;;3.10;1.80;;;36.70;60.40;;;;;;5048725;28;20044;-70
2021/07/03 10:36:30;;;;;;;4.60;1.83;;;40.10;57.30;;;;;;5050247;28;20050;-69
2021/07/03 10:39:36;;;;;;;5.70;2.00;;;42.70;55.90;;;;;;5037367;28;20049;-68
2021/07/03 10:42:39;;;;;;;5.68;1.60;;;44.40;53.90;;;;;;5048562;28;20147;-70
2021/07/03 10:45:55;;;;;;;8.48;1.75;;;45.40;52.70;;;;;;5050064;28;20036;-71
2021/07/03 10:49:04;;;;;;;7.72;1.50;;;45.70;52.60;;;;;;5030309;28;20044;-71
2021/07/03 10:52:16;;;;;;;11.43;2.47;;;45.50;52.60;;;;;;5030196;28;20593;-70
2021/07/03 10:55:35;;;;;;;4.25;1.70;;;46.10;52.20;;;;;;5030104;28;20527;-68
2021/07/03 10:58:41;;;;;;;3.97;1.52;;;45.90;52.00;;;;;;5030622;28;20402;-69
2021/07/03 11:01:45;;;;;;;2.78;1.40;;;40.60;52.00;;;;;;5030333;28;20048;-68
2021/07/03 11:04:54;;;;;;;4.18;1.75;;;39.80;55.40;;;;;;5037536;28;20513;-70
2021/07/03 11:08:09;;;;;;;4.43;1.50;;;41.70;54.80;;;;;;5049104;28;20036;-71
2021/07/03 11:11:16;;;;;;;3.58;1.80;;;43.20;54.30;;;;;;5048244;28;20044;-71
2021/07/03 11:14:21;;;;;;;9.32;2.10;;;44.20;53.20;;;;;;5050820;28;20364;-69
2021/07/03 11:17:27;;;;;;;4.95;1.70;;;44.30;52.80;;;;;;5050403;28;20046;-69
2021/07/03 11:20:33;;;;;;;5.13;1.48;;;43.20;52.90;;;;;;5049700;28;20055;-68
2021/07/03 11:23:38;;;;;;;4.63;2.10;;;42.90;53.00;;;;;;5050226;28;20051;-68
2021/07/03 11:26:43;;;;;;;7.82;2.10;;;37.50;54.10;;;;;;5049206;28;20044;-68
2021/07/03 11:29:47;;;;;;;4.30;2.10;;;35.40;58.90;;;;;;5028023;28;20061;-68
2021/07/03 11:32:53;;;;;;;24.35;3.60;;;35.20;59.70;;;;;;5033979;28;20037;-69
2021/07/03 11:35:58;;;;;;;6.40;1.90;;;35.60;60.50;;;;;;5029829;28;20044;-68
2021/07/03 11:39:03;;;;;;;4.20;2.05;;;37.20;59.00;;;;;;5047916;28;20051;-68
2021/07/03 11:42:07;;;;;;;5.82;2.13;;;39.10;57.20;;;;;;5034408;28;20044;-68
2021/07/03 11:45:13;;;;;;;5.45;1.95;;;39.90;56.30;;;;;;5049522;28;20049;-70
2021/07/03 11:48:19;;;;;;;2.83;1.73;;;39.60;55.80;;;;;;5049330;28;20040;-67
2021/07/03 11:51:24;;;;;;;20.88;3.70;;;37.60;55.80;;;;;;5048211;28;20466;-67
2021/07/03 11:54:28;;;;;;;4.57;2.25;;;37.20;59.20;;;;;;5046359;28;20044;-68
2021/07/03 11:57:41;;;;;;;4.22;1.90;;;37.30;58.30;;;;;;5037341;28;20055;-70
2021/07/03 12:00:50;;;;;;;3.25;2.22;;;37.40;58.20;;;;;;5049384;28;20037;-69
2021/07/03 12:03:55;;;;;;;4.28;2.08;;;38.90;57.50;;;;;;5030165;28;20502;-68
2021/07/03 12:07:00;;;;;;;4.90;2.40;;;36.40;58.70;;;;;;5048126;28;20037;-68
2021/07/03 12:10:08;;;;;;;3.78;1.92;;;37.50;58.60;;;;;;5049062;28;20044;-68
2021/07/03 12:13:22;;;;;;;2.58;1.80;;;38.50;59.60;;;;;;5048736;28;20428;-68
2021/07/03 12:16:26;;;;;;;6.72;2.30;;;36.10;60.70;;;;;;5049476;28;20038;-67
2021/07/03 12:19:30;;;;;;;5.97;2.28;;;37.10;60.10;;;;;;5049352;28;20530;-68
2021/07/03 12:22:35;;;;;;;7.18;1.85;;;37.60;59.80;;;;;;5049440;28;20029;-69
2021/07/03 12:25:40;;;;;;;4.88;2.20;;;38.20;59.60;;;;;;5049625;28;20044;-70
2021/07/03 12:29:00;;;;;;;6.57;2.20;;;39.10;57.90;;;;;;5049153;28;20052;-69
2021/07/03 12:32:11;;;;;;;5.65;2.50;;;39.10;58.40;;;;;;5048830;28;20051;-67
2021/07/03 12:35:16;;;;;;;5.93;2.42;;;36.40;59.40;;;;;;5049887;28;20065;-69
2021/07/03 12:38:25;;;;;;;6.68;2.30;;;34.30;65.10;;;;;;5048160;28;20379;-69
2021/07/03 12:41:29;;;;;;;4.07;2.10;;;35.50;63.60;;;;;;5047247;28;20387;-68
2021/07/03 12:45:06;;;;;;;6.95;2.50;;;35.90;61.90;;;;;;5037331;28;20049;-67
2021/07/03 12:48:15;;;;;;;10.00;3.10;;;34.10;64.10;;;;;;5049484;28;20046;-67
2021/07/03 12:51:20;;;;;;;4.20;2.33;;;32.40;67.50;;;;;;5047071;28;21109;-67
2021/07/03 12:54:25;;;;;;;5.75;2.58;;;32.70;66.90;;;;;;5045710;28;20036;-68
2021/07/03 12:57:47;;;;;;;4.97;2.55;;;33.60;65.60;;;;;;5048948;28;20025;-68
2021/07/03 13:00:53;;;;;;;4.25;2.63;;;33.80;65.80;;;;;;5042592;28;20033;-67
2021/07/03 13:03:58;;;;;;;4.97;2.85;;;33.60;67.10;;;;;;5049839;28;20032;-68
2021/07/03 13:07:06;;;;;;;4.78;2.42;;;33.40;66.90;;;;;;5050876;28;20033;-68
2021/07/03 13:10:14;;;;;;;4.95;2.70;;;34.50;65.50;;;;;;5052020;28;20049;-69
2021/07/03 13:13:19;;;;;;;5.00;2.35;;;35.00;65.20;;;;;;5051086;28;20036;-68
2021/07/03 13:16:25;;;;;;;6.53;2.75;;;35.20;64.70;;;;;;5051255;28;20387;-68
2021/07/03 13:19:29;;;;;;;6.40;2.60;;;35.10;64.90;;;;;;5032461;28;20048;-68
2021/07/03 13:22:33;;;;;;;7.40;2.20;;;35.60;65.00;;;;;;5048356;28;20418;-68
2021/07/03 13:25:37;;;;;;;4.47;2.58;;;36.30;63.30;;;;;;5050984;28;20041;-68
2021/07/03 13:28:43;;;;;;;4.88;2.30;;;36.50;63.30;;;;;;5049354;28;20052;-68
2021/07/03 13:31:47;;;;;;;6.35;2.67;;;36.10;63.40;;;;;;5049256;28;20040;-69
2021/07/03 13:34:51;;;;;;;4.97;2.58;;;35.50;64.00;;;;;;5051414;28;20391;-69
2021/07/03 13:37:56;;;;;;;6.90;2.30;;;35.80;64.00;;;;;;5051729;28;20489;-69
2021/07/03 13:41:01;;;;;;;6.57;2.40;;;36.20;64.60;;;;;;5051716;28;20498;-68
2021/07/03 13:44:05;;;;;;;4.35;2.13;;;36.70;63.80;;;;;;5052379;28;20041;-69
2021/07/03 13:47:09;;;;;;;7.13;2.15;;;36.30;63.70;;;;;;5052138;28;20037;-68
2021/07/03 13:50:13;;;;;;;6.47;2.30;;;35.10;64.80;;;;;;5050905;28;20048;-70
2021/07/03 13:53:18;;;;;;;9.10;2.60;;;34.10;66.00;;;;;;5051809;28;20518;-69
2021/07/03 13:56:22;;;;;;;6.68;2.70;;;34.60;66.40;;;;;;5051176;28;20029;-70
2021/07/03 13:59:26;;;;;;;5.95;3.20;;;34.60;66.00;;;;;;5050570;28;20044;-68
2021/07/03 14:02:30;;;;;;;8.40;3.35;;;32.20;69.20;;;;;;5051652;28;20051;-68
2021/07/03 14:05:35;;;;;;;5.93;2.67;;;31.10;70.30;;;;;;5051804;28;20048;-69
2021/07/03 14:08:42;;;;;;;6.85;3.15;;;31.20;71.60;;;;;;5051529;28;20048;-69
2021/07/03 14:11:46;;;;;;;7.28;2.58;;;32.10;70.40;;;;;;5051409;28;20038;-69
2021/07/03 14:14:50;;;;;;;6.18;2.67;;;33.20;70.50;;;;;;5050706;28;20393;-69
2021/07/03 14:17:56;;;;;;;7.53;2.58;;;34.00;68.50;;;;;;5051629;28;20036;-69
2021/07/03 14:21:01;;;;;;;8.55;2.50;;;34.70;67.80;;;;;;5050448;28;20509;-69
2021/07/03 14:24:05;;;;;;;7.00;2.60;;;34.80;67.20;;;;;;5048414;28;20491;-69
2021/07/03 14:27:09;;;;;;;6.68;3.08;;;32.50;69.60;;;;;;5048718;28;20056;-68
2021/07/03 14:30:14;;;;;;;7.07;2.83;;;32.90;71.30;;;;;;5050432;28;20053;-69
2021/07/03 14:33:18;;;;;;;4.68;2.42;;;33.60;69.40;;;;;;5051213;28;20041;-67
2021/07/03 14:36:23;;;;;;;7.30;2.67;;;34.20;68.50;;;;;;5051162;28;20052;-68
2021/07/03 14:39:27;;;;;;;9.27;2.70;;;34.10;68.20;;;;;;5050678;28;20389;-69
2021/07/03 14:42:32;;;;;;;8.93;2.65;;;33.90;69.10;;;;;;5050880;28;20064;-69
2021/07/03 14:45:36;;;;;;;7.20;2.45;;;33.80;69.00;;;;;;5051002;28;20036;-70
2021/07/03 14:48:40;;;;;;;11.57;2.85;;;34.10;68.50;;;;;;5050990;28;20033;-68
2021/07/03 14:51:45;;;;;;;7.53;2.75;;;34.40;68.40;;;;;;5050575;28;20044;-68
2021/07/03 14:54:49;;;;;;;6.40;2.40;;;33.50;68.80;;;;;;5050666;28;20044;-69
2021/07/03 14:57:53;;;;;;;5.95;2.53;;;33.80;69.30;;;;;;5030831;28;20043;-69
2021/07/03 15:00:57;;;;;;;6.68;2.53;;;33.90;69.20;;;;;;5029297;28;20416;-69
2021/07/03 15:04:02;;;;;;;7.63;2.60;;;33.40;69.70;;;;;;5030885;28;20041;-69
2021/07/03 15:07:06;;;;;;;4.65;2.47;;;33.10;70.40;;;;;;5030792;28;20049;-68
2021/07/03 15:10:12;;;;;;;6.97;2.67;;;33.40;70.60;;;;;;5029750;28;20041;-68
2021/07/03 15:13:17;;;;;;;5.00;2.50;;;33.60;69.80;;;;;;5030709;28;20052;-68
2021/07/03 15:16:21;;;;;;;4.10;2.30;;;33.70;69.10;;;;;;5034559;28;20496;-68
2021/07/03 15:19:25;;;;;;;6.38;2.47;;;33.90;70.30;;;;;;5047412;28;20041;-68
2021/07/03 15:22:29;;;;;;;9.50;2.70;;;34.00;70.10;;;;;;5050719;28;20368;-68
2021/07/03 15:25:34;;;;;;;6.82;2.70;;;33.60;69.90;;;;;;5038632;28;20060;-68
2021/07/03 15:28:38;;;;;;;8.82;2.67;;;32.70;68.80;;;;;;5049175;28;20033;-69
2021/07/03 15:31:43;;;;;;;6.05;2.53;;;32.80;70.80;;;;;;5049468;28;20049;-67
2021/07/03 15:34:47;;;;;;;5.10;2.30;;;33.10;70.70;;;;;;5046478;28;20037;-68
2021/07/03 15:37:52;;;;;;;5.10;2.33;;;33.20;70.70;;;;;;5049500;28;20219;-69
2021/07/03 15:40:56;;;;;;;4.50;2.40;;;33.40;69.10;;;;;;5049393;28;20056;-69
2021/07/03 15:44:00;;;;;;;7.93;2.67;;;33.10;69.10;;;;;;5050432;28;20055;-66
2021/07/03 15:47:04;;;;;;;3.13;1.98;;;33.00;69.60;;;;;;5050019;28;20033;-68
2021/07/03 15:50:10;;;;;;;6.63;2.38;;;32.80;69.30;;;;;;5048825;28;20041;-67
2021/07/03 15:53:14;;;;;;;6.60;2.70;;;32.40;69.00;;;;;;5029978;28;20045;-68
2021/07/03 15:56:18;;;;;;;13.95;3.00;;;31.70;69.10;;;;;;5037575;28;20044;-68
2021/07/03 15:59:22;;;;;;;5.10;2.47;;;31.50;71.00;;;;;;5049080;28;20044;-68
2021/07/03 16:02:26;;;;;;;6.90;2.60;;;31.80;70.60;;;;;;5049141;28;20049;-68